createdAt,value
2023-02-04T00:02:02.173Z,64.05
2023-02-04T00:07:14.189Z,64.28
2023-02-04T00:09:41.706Z,64.19
2023-02-04T00:12:39.988Z,63.99
2023-02-04T00:15:12.738Z,64.38
2023-02-04T00:17:43.296Z,63.91
2023-02-04T00:20:10.888Z,64.33
2023-02-04T00:22:38.079Z,64.21
2023-02-04T00:25:06.570Z,64.34
2023-02-04T00:27:33.404Z,64.39
2023-02-04T00:32:59.536Z,64.51
2023-02-04T00:35:27.105Z,64.59
2023-02-04T00:37:58.301Z,64.52
2023-02-04T00:40:27.232Z,64.58
2023-02-04T00:42:54.299Z,64.45
2023-02-04T00:48:06.015Z,64.11
2023-02-04T00:50:39.711Z,64.30
2023-02-04T00:53:07.231Z,64.42
2023-02-04T00:55:35.832Z,64.63
2023-02-04T00:58:06.001Z,63.94
2023-02-04T01:00:37.382Z,63.86
2023-02-04T01:03:14.070Z,63.72
2023-02-04T01:05:42.568Z,63.73
2023-02-04T01:08:11.244Z,64.22
2023-02-04T01:10:37.966Z,64.19
2023-02-04T01:13:05.272Z,63.97
2023-02-04T01:18:14.314Z,64.26
2023-02-04T01:20:41.879Z,64.72
2023-02-04T01:23:13.022Z,64.32
2023-02-04T01:25:41.088Z,64.54
2023-02-04T01:28:07.907Z,64.00
2023-02-04T01:30:34.873Z,64.43
2023-02-04T01:33:01.960Z,64.54
2023-02-04T01:35:31.169Z,64.30
2023-02-04T01:37:57.935Z,64.73
2023-02-04T01:40:25.433Z,64.57
2023-02-04T01:42:53.132Z,64.15
2023-02-04T01:45:20.084Z,64.82
2023-02-04T01:47:47.201Z,64.38
2023-02-04T01:50:19.698Z,64.67
2023-02-04T01:55:31.324Z,63.96
2023-02-04T01:58:02.640Z,64.28
2023-02-04T02:00:32.369Z,64.96
2023-02-04T02:03:04.268Z,64.90
2023-02-04T02:05:36.041Z,64.81
2023-02-04T02:08:08.964Z,63.96
2023-02-04T02:10:42.633Z,64.00
2023-02-04T02:13:20.045Z,64.14
2023-02-04T02:15:48.575Z,64.62
2023-02-04T02:18:15.959Z,64.74
2023-02-04T02:20:45.865Z,65.17
2023-02-04T02:23:23.590Z,64.32
2023-02-04T02:25:51.954Z,64.25
2023-02-04T02:28:22.102Z,64.41
2023-02-04T02:30:50.621Z,64.55
2023-02-04T02:33:21.670Z,64.40
2023-02-04T02:35:49.947Z,64.61
2023-02-04T02:38:18.260Z,64.36
2023-02-04T02:40:47.036Z,64.45
2023-02-04T02:43:18.520Z,64.53
2023-02-04T02:45:45.770Z,64.74
2023-02-04T02:48:13.536Z,64.77
2023-02-04T02:50:42.066Z,64.73
2023-02-04T02:53:11.957Z,65.21
2023-02-04T02:55:41.031Z,65.27
2023-02-04T02:58:18.162Z,65.14
2023-02-04T03:00:46.569Z,65.33
2023-02-04T03:03:24.487Z,65.71
2023-02-04T03:05:56.554Z,64.88
2023-02-04T03:08:23.890Z,65.20
2023-02-04T03:10:52.056Z,65.36
2023-02-04T03:13:20.596Z,65.02
2023-02-04T03:15:54.688Z,65.32
2023-02-04T03:18:22.771Z,65.10
2023-02-04T03:20:51.360Z,65.38
2023-02-04T03:23:18.987Z,64.94
2023-02-04T03:25:45.845Z,65.29
2023-02-04T03:28:13.096Z,64.60
2023-02-04T03:30:39.955Z,65.34
2023-02-04T03:33:08.355Z,65.54
2023-02-04T03:35:35.602Z,65.38
2023-02-04T03:38:03.132Z,65.29
2023-02-04T03:40:31.109Z,65.51
2023-02-04T03:42:58.088Z,65.10
2023-02-04T03:45:25.072Z,65.50
2023-02-04T03:47:53.813Z,64.77
2023-02-04T03:50:25.496Z,64.78
2023-02-04T03:52:54.397Z,65.40
2023-02-04T03:55:21.413Z,64.63
2023-02-04T03:57:49.210Z,65.33
2023-02-04T04:00:16.964Z,65.26
2023-02-04T04:02:44.690Z,65.05
2023-02-04T04:05:15.406Z,64.95
2023-02-04T04:07:46.564Z,64.87
2023-02-04T04:15:34.778Z,64.89
2023-02-04T04:18:12.442Z,65.12
2023-02-04T04:20:39.229Z,65.58
2023-02-04T04:23:07.456Z,65.01
2023-02-04T04:25:35.872Z,65.33
2023-02-04T04:28:02.972Z,65.08
2023-02-04T04:30:30.470Z,65.40
2023-02-04T04:32:57.906Z,64.92
2023-02-04T04:35:24.765Z,64.85
2023-02-04T04:37:51.825Z,64.73
2023-02-04T04:40:20.384Z,64.50
2023-02-04T04:42:50.858Z,64.98
2023-02-04T04:45:17.929Z,64.78
2023-02-04T04:47:45.008Z,64.91
2023-02-04T04:50:12.552Z,64.66
2023-02-04T04:52:39.417Z,64.92
2023-02-04T04:55:10.587Z,64.65
2023-02-04T05:04:08.501Z,64.76
2023-02-04T05:06:36.912Z,64.79
2023-02-04T05:09:11.713Z,65.31
2023-02-04T05:17:06.467Z,64.67
2023-02-04T05:48:55.558Z,64.08
2023-02-04T05:51:29.799Z,63.95
2023-02-04T05:59:19.250Z,63.64
2023-02-04T06:13:59.809Z,63.73
2023-02-04T06:30:32.132Z,63.20
2023-02-04T06:33:02.373Z,63.81
2023-02-04T06:35:29.503Z,63.60
2023-02-04T06:40:37.167Z,63.82
2023-02-04T06:48:59.966Z,64.67
2023-02-04T07:27:57.949Z,64.47
2023-02-04T08:19:02.621Z,64.74
2023-02-04T08:21:33.317Z,64.73
2023-02-04T08:29:35.118Z,64.60
2023-02-04T08:35:16.560Z,64.72
2023-02-04T09:35:30.814Z,63.86
2023-02-04T09:40:44.847Z,63.34
2023-02-04T09:43:24.355Z,63.40
2023-02-04T09:51:47.385Z,63.61
2023-02-04T09:54:19.808Z,63.66
2023-02-04T10:02:20.861Z,63.30
2023-02-04T10:07:33.585Z,62.71
2023-02-04T10:15:27.246Z,63.56
2023-02-04T10:20:47.496Z,63.69
2023-02-04T10:23:15.440Z,63.41
2023-02-04T10:25:45.416Z,63.38
2023-02-04T10:28:14.004Z,63.52
2023-02-04T10:30:47.641Z,63.38
2023-02-04T10:33:26.801Z,63.31
2023-02-04T10:35:59.843Z,63.28
2023-02-04T10:38:34.499Z,63.15
2023-02-04T10:41:04.714Z,62.79
2023-02-04T10:43:36.769Z,63.25
2023-02-04T10:46:05.582Z,62.99
2023-02-04T10:48:40.498Z,63.28
2023-02-04T10:51:13.071Z,62.87
2023-02-04T10:59:38.094Z,62.79
2023-02-04T11:13:40.873Z,63.04
2023-02-04T11:16:18.926Z,62.13
2023-02-04T11:21:46.986Z,62.72
2023-02-04T11:24:25.265Z,62.65
2023-02-04T11:26:58.224Z,62.89
2023-02-04T11:29:54.739Z,62.88
2023-02-04T11:32:57.930Z,62.89
2023-02-04T11:35:28.627Z,62.88
2023-02-04T11:37:56.203Z,62.05
2023-02-04T11:40:29.909Z,62.20
2023-02-04T11:42:59.626Z,61.96
2023-02-04T11:45:30.472Z,62.16
2023-02-04T11:48:08.799Z,62.02
2023-02-04T11:53:19.557Z,61.98
2023-02-04T11:55:47.800Z,61.84
2023-02-04T11:58:27.161Z,61.66
2023-02-04T12:04:02.305Z,61.79
2023-02-04T12:06:34.427Z,61.98
2023-02-04T12:14:37.281Z,61.55
2023-02-04T12:25:24.599Z,62.46
2023-02-04T12:27:52.148Z,62.19
2023-02-04T12:30:20.680Z,62.50
2023-02-04T12:32:47.874Z,62.39
2023-02-04T12:35:18.917Z,62.66
2023-02-04T12:40:30.367Z,62.68
2023-02-04T12:42:59.238Z,62.82
2023-02-04T12:45:26.137Z,63.09
2023-02-04T12:47:53.321Z,62.64
2023-02-04T12:50:42.035Z,62.90
2023-02-04T12:53:16.945Z,63.09
2023-02-04T12:55:46.882Z,63.80
2023-02-04T12:58:14.449Z,63.34
2023-02-04T13:00:46.523Z,62.74
2023-02-04T13:03:14.701Z,63.07
2023-02-04T13:06:06.985Z,63.72
2023-02-04T13:08:34.513Z,63.39
2023-02-04T13:11:05.120Z,63.19
2023-02-04T13:18:57.788Z,63.75
2023-02-04T13:21:31.388Z,63.00
2023-02-04T13:24:07.509Z,63.55
2023-02-04T13:29:19.669Z,63.04
2023-02-04T13:34:29.455Z,63.22
2023-02-04T13:37:03.517Z,62.56
2023-02-04T13:39:31.084Z,62.24
2023-02-04T13:47:21.952Z,62.25
2023-02-04T13:52:59.708Z,62.10
2023-02-04T13:55:33.985Z,62.05
2023-02-04T13:58:08.287Z,61.61
2023-02-04T14:00:36.998Z,61.17
2023-02-04T14:05:45.798Z,61.04
2023-02-04T14:10:55.245Z,60.73
2023-02-04T14:13:22.878Z,60.71
2023-02-04T14:18:30.534Z,60.36
2023-02-04T14:45:44.687Z,61.01
2023-02-04T14:48:12.625Z,61.01
2023-02-04T14:53:20.214Z,61.25
2023-02-04T14:55:47.300Z,60.84
2023-02-04T14:58:14.250Z,60.63
2023-02-04T15:04:15.963Z,60.28
2023-02-04T15:07:14.110Z,60.27
2023-02-04T15:13:21.054Z,60.55
2023-02-04T15:16:18.435Z,60.85
2023-02-04T15:22:06.264Z,61.03
2023-02-04T15:27:17.781Z,60.68
2023-02-04T15:29:46.298Z,61.00
2023-02-04T15:38:12.377Z,61.06
2023-02-04T15:48:44.082Z,61.18
2023-02-04T15:51:11.529Z,61.26
2023-02-04T15:56:21.987Z,61.36
2023-02-04T16:01:30.700Z,60.58
2023-02-04T16:03:59.741Z,61.02
2023-02-04T16:09:08.318Z,61.07
2023-02-04T16:11:51.660Z,60.75
2023-02-04T16:17:02.431Z,61.43
2023-02-04T16:22:11.711Z,61.04
2023-02-04T16:24:38.970Z,61.19
2023-02-04T16:29:48.364Z,61.30
2023-02-04T16:32:15.555Z,61.00
2023-02-04T16:34:42.688Z,61.15
2023-02-04T16:45:50.382Z,60.93
2023-02-04T16:51:00.378Z,61.26
2023-02-04T16:53:27.656Z,61.49
2023-02-04T16:56:03.259Z,60.97
2023-02-04T16:58:30.386Z,61.04
2023-02-04T17:03:40.954Z,60.82
2023-02-04T17:06:08.416Z,61.31
2023-02-04T17:08:35.510Z,61.50
2023-02-04T17:11:21.509Z,61.91
2023-02-04T17:13:57.412Z,61.52
2023-02-04T17:16:28.281Z,61.78
2023-02-04T17:18:56.955Z,61.16
2023-02-04T17:21:26.032Z,61.41
2023-02-04T17:26:38.275Z,61.32
2023-02-04T17:31:56.556Z,61.24
2023-02-04T17:34:23.863Z,61.17
2023-02-04T17:36:51.402Z,61.10
2023-02-04T17:39:21.836Z,61.45
2023-02-04T17:41:50.430Z,61.40
2023-02-04T17:44:20.256Z,60.91
2023-02-04T17:49:46.019Z,60.95
2023-02-04T17:52:15.212Z,61.17
2023-02-04T17:54:42.199Z,61.28
2023-02-04T17:57:21.762Z,61.08
2023-02-04T17:59:56.948Z,61.35
2023-02-04T18:02:26.545Z,61.58
2023-02-04T18:04:57.992Z,61.43
2023-02-04T18:07:24.709Z,61.13
2023-02-04T18:09:51.598Z,61.14
2023-02-04T18:12:19.452Z,61.65
2023-02-04T18:14:46.905Z,61.56
2023-02-04T18:17:15.975Z,61.48
2023-02-04T18:19:45.123Z,61.47
2023-02-04T18:22:16.133Z,61.39
2023-02-04T18:24:45.358Z,61.47
2023-02-04T18:27:16.910Z,61.08
2023-02-04T18:29:46.923Z,61.67
2023-02-04T18:32:19.373Z,61.39
2023-02-04T18:34:47.782Z,61.28
2023-02-04T18:37:29.234Z,61.30
2023-02-04T18:40:01.111Z,61.76
2023-02-04T18:42:27.848Z,61.74
2023-02-04T18:44:56.692Z,61.60
2023-02-04T18:47:31.626Z,61.76
2023-02-04T18:49:59.935Z,61.73
2023-02-04T18:52:37.085Z,61.91
2023-02-04T18:55:21.850Z,62.05
2023-02-04T18:57:48.607Z,61.71
2023-02-04T19:00:27.457Z,62.01
2023-02-04T19:02:57.786Z,61.53
2023-02-04T19:05:33.013Z,61.79
2023-02-04T19:08:25.165Z,61.67
2023-02-04T19:10:54.066Z,61.49
2023-02-04T19:13:23.220Z,62.13
2023-02-04T19:15:56.629Z,61.96
2023-02-04T19:18:26.284Z,62.36
2023-02-04T19:20:53.847Z,61.92
2023-02-04T19:23:24.420Z,62.44
2023-02-04T19:25:52.442Z,62.04
2023-02-04T19:28:33.617Z,62.29
2023-02-04T19:31:02.032Z,62.07
2023-02-04T19:33:36.445Z,62.62
2023-02-04T19:36:35.775Z,62.64
2023-02-04T19:39:18.884Z,62.12
2023-02-04T19:41:48.265Z,62.56
2023-02-04T19:44:35.064Z,62.50
2023-02-04T19:47:23.483Z,62.20
2023-02-04T19:49:50.965Z,62.59
2023-02-04T19:52:50.167Z,62.83
2023-02-04T19:55:30.626Z,62.88
2023-02-04T19:58:00.261Z,62.46
2023-02-04T20:00:44.659Z,62.51
2023-02-04T20:03:26.418Z,62.52
2023-02-04T20:05:53.769Z,63.05
2023-02-04T20:08:41.709Z,63.19
2023-02-04T20:11:41.982Z,62.67
2023-02-04T20:14:23.182Z,62.83
2023-02-04T20:16:52.201Z,62.75
2023-02-04T20:19:21.742Z,63.20
2023-02-04T20:22:00.840Z,62.76
2023-02-04T20:24:33.696Z,63.23
2023-02-04T20:27:11.157Z,63.06
2023-02-04T20:29:38.329Z,63.10
2023-02-04T20:32:17.246Z,62.99
2023-02-04T20:34:44.055Z,63.56
2023-02-04T20:37:21.669Z,63.37
2023-02-04T20:39:48.523Z,63.40
2023-02-04T20:42:29.533Z,63.23
2023-02-04T20:45:02.228Z,63.59
2023-02-04T20:47:30.016Z,63.40
2023-02-04T20:49:58.460Z,63.26
2023-02-04T20:53:11.546Z,63.22
2023-02-04T20:55:38.253Z,62.95
2023-02-04T20:58:16.438Z,62.91
2023-02-04T21:00:43.727Z,63.35
2023-02-04T21:03:25.977Z,62.63
2023-02-04T21:05:54.373Z,62.71
2023-02-04T21:08:32.046Z,63.08
2023-02-04T21:11:00.817Z,63.43
2023-02-04T21:13:29.070Z,62.81
2023-02-04T21:15:57.327Z,63.33
2023-02-04T21:18:24.478Z,63.17
2023-02-04T21:20:51.657Z,63.34
2023-02-04T21:23:19.070Z,63.30
2023-02-04T21:25:46.700Z,63.72
2023-02-04T21:28:14.637Z,63.81
2023-02-04T21:30:42.730Z,63.53
2023-02-04T21:33:11.503Z,62.90
2023-02-04T21:35:38.717Z,63.60
2023-02-04T21:38:05.836Z,64.00
2023-02-04T21:40:34.301Z,63.59
2023-02-04T21:43:02.780Z,62.97
2023-02-04T21:45:29.861Z,63.33
2023-02-04T21:47:58.050Z,63.49
2023-02-04T21:50:24.802Z,63.47
2023-02-04T21:52:51.459Z,63.46
2023-02-04T21:55:21.623Z,63.28
2023-02-04T21:57:50.706Z,63.20
2023-02-04T22:00:19.138Z,63.65
2023-02-04T22:02:45.896Z,64.04
2023-02-04T22:05:14.021Z,63.90
2023-02-04T22:07:40.847Z,63.94
2023-02-04T22:10:09.969Z,63.92
2023-02-04T22:12:36.831Z,64.42
2023-02-04T22:15:04.689Z,64.32
2023-02-04T22:17:31.500Z,63.58
2023-02-04T22:19:58.424Z,64.12
2023-02-04T22:22:26.478Z,62.89
2023-02-04T22:24:53.407Z,62.58
2023-02-04T22:27:20.110Z,62.97
2023-02-04T22:29:46.872Z,62.79
2023-02-04T22:32:13.577Z,62.89
2023-02-04T22:34:42.192Z,63.49
2023-02-04T22:37:08.843Z,63.35
2023-02-04T22:39:38.031Z,64.03
2023-02-04T22:42:06.549Z,63.57
2023-02-04T22:44:33.162Z,63.84
2023-02-04T22:47:03.521Z,63.54
2023-02-04T22:49:32.751Z,63.24
2023-02-04T22:51:59.715Z,62.75
2023-02-04T22:54:26.440Z,62.43
2023-02-04T22:56:54.617Z,62.52
2023-02-04T22:59:21.223Z,62.18
2023-02-04T23:01:47.969Z,61.92
2023-02-04T23:04:14.742Z,62.05
2023-02-04T23:06:41.604Z,61.97
2023-02-04T23:09:08.401Z,61.53
2023-02-04T23:11:35.698Z,62.02
2023-02-04T23:14:03.912Z,62.16
2023-02-04T23:16:30.649Z,63.89
2023-02-04T23:18:57.930Z,63.35
2023-02-04T23:21:24.871Z,63.64
2023-02-04T23:23:52.675Z,63.81
2023-02-04T23:26:19.622Z,64.47
2023-02-04T23:28:46.628Z,64.20
2023-02-04T23:31:14.650Z,63.34
2023-02-04T23:33:41.320Z,62.99
2023-02-04T23:36:08.456Z,63.96
2023-02-04T23:38:35.267Z,64.23
2023-02-04T23:41:01.898Z,64.04
2023-02-04T23:43:28.901Z,64.81
2023-02-04T23:45:57.221Z,64.30
2023-02-04T23:48:25.756Z,64.15
2023-02-04T23:50:52.567Z,63.28
2023-02-04T23:53:19.438Z,63.22
2023-02-04T23:55:46.283Z,63.77
2023-02-04T23:58:13.039Z,63.71
